Mosca, CO (81146)

8:42 AM MDT on August 20, 2014 (GMT -0600)
NE of Alamosa | Change Station
CLOSE
Current Station
Personal Weather Station
Location: Alamosa, CO
Elevation: 7556 ft
Nearby Weather Stations

Elev 7556 ft 37.52 °N, 105.85 °W | Updated 10 minutes ago

Clear
Clear
60.3 °F
Feels Like 60.3 °F
N
5.0
Wind Variable Wind from SSW
Gusts 5.0 mph

Today
High -- | Low -- °F
--% Chance of Precip.
Yesterday
High -- | Low -- °F
Precip. -- in
6:22 AM 7:48 PM
Waning Crescent, 21% visible
Pressure 29.87 in
Visibility 10.0 miles
Clouds Clear
Dew Point 51 °F
Humidity 71%
Rainfall 0.00 in
Snow Depth 0 in , 0 in
UV 1 out of 12
Pollen 10.30 out of 12
Air Quality Not available.
Flu Activity Not available.
METAR KALS 201352Z AUTO 20006KT 10SM CLR 16/09 A3016 RMK AO2 SLP114 T01560089

More Conditions Fewer Conditions

Pressure 29.87 in
Visibility 10.0 miles
Clouds Clear
Dew Point 51 °F
Humidity 71%
Rainfall 0.00 in
Snow Depth 0 in , 0 in
UV 1 out of 12
Pollen 10.30 out of 12
Air Quality Not available.
Flu Activity Not available.
METAR KALS 201352Z AUTO 20006KT 10SM CLR 16/09 A3016 RMK AO2 SLP114 T01560089

More Conditions Fewer Conditions

10-Day Weather Forecast

Almanac

Astronomy

Aug. 20, 2014 Rise Set
Actual Time 6:22 AM MDT 7:48 PM MDT
Civil Twilight 5:55 AM MDT 8:16 PM MDT
Nautical Twilight 5:22 AM MDT 8:49 PM MDT
Astronomical Twilight 4:47 AM MDT 9:23 PM MDT
Moon 2:06 AM MDT 4:33 PM MDT
Length of Visible Light 14h 20m
Length of Day
13h 25m
Tomorrow will be 2m 12s shorter.
Waning Crescent, 21% of the Moon is Illuminated
Today
Waning Crescent
Aug 25
New
Sep 2
First Quarter
Sep 8
Full
Sep 15
Last Quarter

Today's Extremes

State Highs State Lows

Community

WunderPhotos

Upload Photos

1,745,658 photos uploaded!

Nearby

Snow Depth

Station Depth Elevation
Ute Creek 0 in 10650 ft
Medano Pass 0 in 9620 ft
Cumbres Trestle 0 in 10020 ft
Cochetopa Pass 0 in 10020 ft
Wolf Creek Summit 0 in 11000 ft

Earthquake Activity

City Distance Mag. Time & Date
No recent earthquake activity has been reported nearby.
Minimum magnitude displayed is 2.5.

Coastal Water Temperatures

Place Temperature
No Stations Reporting

Nearby Weather Stations